sensor_id;sensor_type;location;lat;lon;timestamp;P1;durP1;ratioP1;P2;durP2;ratioP2
58468;SDS011;44257;44.804;10.220;2022-07-30T00:01:38;4.55;;;3.40;;
58468;SDS011;44257;44.804;10.220;2022-07-30T00:04:04;5.00;;;3.78;;
58468;SDS011;44257;44.804;10.220;2022-07-30T00:06:30;6.72;;;3.40;;
58468;SDS011;44257;44.804;10.220;2022-07-30T00:08:56;7.60;;;5.35;;
58468;SDS011;44257;44.804;10.220;2022-07-30T00:11:23;5.53;;;3.38;;
58468;SDS011;44257;44.804;10.220;2022-07-30T00:13:49;4.82;;;3.25;;
58468;SDS011;44257;44.804;10.220;2022-07-30T00:16:15;7.47;;;4.03;;
58468;SDS011;44257;44.804;10.220;2022-07-30T00:18:41;5.28;;;3.55;;
58468;SDS011;44257;44.804;10.220;2022-07-30T00:21:07;6.65;;;3.63;;
58468;SDS011;44257;44.804;10.220;2022-07-30T00:23:33;8.20;;;4.13;;
58468;SDS011;44257;44.804;10.220;2022-07-30T00:25:59;6.18;;;4.00;;
58468;SDS011;44257;44.804;10.220;2022-07-30T00:28:25;6.50;;;3.33;;
58468;SDS011;44257;44.804;10.220;2022-07-30T00:30:51;4.38;;;3.92;;
58468;SDS011;44257;44.804;10.220;2022-07-30T00:33:17;6.43;;;4.30;;
58468;SDS011;44257;44.804;10.220;2022-07-30T00:35:43;3.33;;;2.95;;
58468;SDS011;44257;44.804;10.220;2022-07-30T00:38:11;5.00;;;3.10;;
58468;SDS011;44257;44.804;10.220;2022-07-30T00:40:37;4.57;;;2.97;;
58468;SDS011;44257;44.804;10.220;2022-07-30T00:43:04;6.75;;;3.78;;
58468;SDS011;44257;44.804;10.220;2022-07-30T00:45:30;7.25;;;3.28;;
58468;SDS011;44257;44.804;10.220;2022-07-30T00:47:56;5.10;;;3.90;;
58468;SDS011;44257;44.804;10.220;2022-07-30T00:50:25;3.47;;;2.25;;
58468;SDS011;44257;44.804;10.220;2022-07-30T00:52:51;7.90;;;4.40;;
58468;SDS011;44257;44.804;10.220;2022-07-30T00:55:17;7.30;;;3.70;;
58468;SDS011;44257;44.804;10.220;2022-07-30T00:57:43;5.55;;;3.58;;
58468;SDS011;44257;44.804;10.220;2022-07-30T01:00:12;4.70;;;3.53;;
58468;SDS011;44257;44.804;10.220;2022-07-30T01:02:40;7.90;;;3.35;;
58468;SDS011;44257;44.804;10.220;2022-07-30T01:05:06;5.63;;;4.47;;
58468;SDS011;44257;44.804;10.220;2022-07-30T01:07:32;4.07;;;2.70;;
58468;SDS011;44257;44.804;10.220;2022-07-30T01:09:59;3.35;;;2.33;;
58468;SDS011;44257;44.804;10.220;2022-07-30T01:12:25;5.35;;;4.05;;
58468;SDS011;44257;44.804;10.220;2022-07-30T01:14:51;4.43;;;3.85;;
58468;SDS011;44257;44.804;10.220;2022-07-30T01:17:20;5.28;;;4.75;;
58468;SDS011;44257;44.804;10.220;2022-07-30T01:19:45;5.68;;;5.05;;
58468;SDS011;44257;44.804;10.220;2022-07-30T01:25:07;4.22;;;3.42;;
58468;SDS011;44257;44.804;10.220;2022-07-30T01:30:26;4.50;;;3.72;;
58468;SDS011;44257;44.804;10.220;2022-07-30T01:32:54;7.50;;;4.50;;
58468;SDS011;44257;44.804;10.220;2022-07-30T01:35:22;16.45;;;3.88;;
58468;SDS011;44257;44.804;10.220;2022-07-30T01:37:51;4.53;;;3.00;;
58468;SDS011;44257;44.804;10.220;2022-07-30T01:40:18;4.43;;;2.90;;
58468;SDS011;44257;44.804;10.220;2022-07-30T01:42:47;4.30;;;3.55;;
58468;SDS011;44257;44.804;10.220;2022-07-30T01:45:21;4.70;;;3.55;;
58468;SDS011;44257;44.804;10.220;2022-07-30T01:47:52;3.58;;;2.00;;
58468;SDS011;44257;44.804;10.220;2022-07-30T01:50:20;3.08;;;2.00;;
58468;SDS011;44257;44.804;10.220;2022-07-30T01:52:47;6.05;;;3.33;;
58468;SDS011;44257;44.804;10.220;2022-07-30T01:55:19;3.58;;;3.10;;
58468;SDS011;44257;44.804;10.220;2022-07-30T01:57:51;3.47;;;2.80;;
58468;SDS011;44257;44.804;10.220;2022-07-30T02:00:19;3.88;;;3.00;;
58468;SDS011;44257;44.804;10.220;2022-07-30T02:02:48;4.18;;;3.17;;
58468;SDS011;44257;44.804;10.220;2022-07-30T02:05:14;3.00;;;2.67;;
58468;SDS011;44257;44.804;10.220;2022-07-30T02:08:11;3.20;;;2.90;;
58468;SDS011;44257;44.804;10.220;2022-07-30T02:10:34;3.75;;;2.40;;
58468;SDS011;44257;44.804;10.220;2022-07-30T02:13:11;5.90;;;3.42;;
58468;SDS011;44257;44.804;10.220;2022-07-30T02:15:42;4.90;;;3.72;;
58468;SDS011;44257;44.804;10.220;2022-07-30T02:18:37;5.38;;;3.28;;
58468;SDS011;44257;44.804;10.220;2022-07-30T02:21:12;4.88;;;3.58;;
58468;SDS011;44257;44.804;10.220;2022-07-30T02:23:43;4.57;;;3.08;;
58468;SDS011;44257;44.804;10.220;2022-07-30T02:26:16;3.78;;;2.97;;
58468;SDS011;44257;44.804;10.220;2022-07-30T02:28:48;5.35;;;3.50;;
58468;SDS011;44257;44.804;10.220;2022-07-30T02:31:21;5.72;;;3.95;;
58468;SDS011;44257;44.804;10.220;2022-07-30T02:33:52;4.15;;;3.70;;
58468;SDS011;44257;44.804;10.220;2022-07-30T02:36:24;3.45;;;2.00;;
58468;SDS011;44257;44.804;10.220;2022-07-30T02:38:52;3.05;;;2.45;;
58468;SDS011;44257;44.804;10.220;2022-07-30T02:41:19;5.55;;;2.85;;
58468;SDS011;44257;44.804;10.220;2022-07-30T02:43:48;2.85;;;2.25;;
58468;SDS011;44257;44.804;10.220;2022-07-30T02:46:20;6.45;;;3.20;;
58468;SDS011;44257;44.804;10.220;2022-07-30T02:49:05;4.28;;;3.72;;
58468;SDS011;44257;44.804;10.220;2022-07-30T02:51:35;5.57;;;4.05;;
58468;SDS011;44257;44.804;10.220;2022-07-30T02:54:02;6.53;;;4.65;;
58468;SDS011;44257;44.804;10.220;2022-07-30T02:56:31;12.48;;;4.70;;
58468;SDS011;44257;44.804;10.220;2022-07-30T02:59:00;4.95;;;3.80;;
58468;SDS011;44257;44.804;10.220;2022-07-30T03:01:27;5.93;;;4.30;;
58468;SDS011;44257;44.804;10.220;2022-07-30T03:03:57;7.88;;;5.35;;
58468;SDS011;44257;44.804;10.220;2022-07-30T03:06:24;6.93;;;4.72;;
58468;SDS011;44257;44.804;10.220;2022-07-30T03:08:51;8.93;;;5.28;;
58468;SDS011;44257;44.804;10.220;2022-07-30T03:11:20;6.80;;;4.80;;
58468;SDS011;44257;44.804;10.220;2022-07-30T03:13:47;8.73;;;4.60;;
58468;SDS011;44257;44.804;10.220;2022-07-30T03:16:14;6.47;;;4.28;;
58468;SDS011;44257;44.804;10.220;2022-07-30T03:18:42;3.97;;;3.60;;
58468;SDS011;44257;44.804;10.220;2022-07-30T03:21:10;9.88;;;5.97;;
58468;SDS011;44257;44.804;10.220;2022-07-30T03:23:38;13.88;;;6.75;;
58468;SDS011;44257;44.804;10.220;2022-07-30T03:26:06;9.07;;;4.85;;
58468;SDS011;44257;44.804;10.220;2022-07-30T03:28:37;6.22;;;4.93;;
58468;SDS011;44257;44.804;10.220;2022-07-30T03:31:05;8.68;;;5.43;;
58468;SDS011;44257;44.804;10.220;2022-07-30T03:33:35;8.80;;;5.47;;
58468;SDS011;44257;44.804;10.220;2022-07-30T03:36:01;9.30;;;5.72;;
58468;SDS011;44257;44.804;10.220;2022-07-30T03:38:29;4.15;;;3.67;;
58468;SDS011;44257;44.804;10.220;2022-07-30T03:40:56;6.07;;;4.80;;
58468;SDS011;44257;44.804;10.220;2022-07-30T03:43:24;8.00;;;5.32;;
58468;SDS011;44257;44.804;10.220;2022-07-30T03:45:51;15.30;;;5.57;;
58468;SDS011;44257;44.804;10.220;2022-07-30T03:48:21;8.35;;;4.85;;
58468;SDS011;44257;44.804;10.220;2022-07-30T03:50:47;10.18;;;6.00;;
58468;SDS011;44257;44.804;10.220;2022-07-30T03:53:15;8.23;;;4.43;;
58468;SDS011;44257;44.804;10.220;2022-07-30T03:56:02;11.95;;;7.32;;
58468;SDS011;44257;44.804;10.220;2022-07-30T03:58:48;7.97;;;6.47;;
58468;SDS011;44257;44.804;10.220;2022-07-30T04:01:15;12.50;;;6.68;;
58468;SDS011;44257;44.804;10.220;2022-07-30T04:03:42;9.93;;;5.95;;
58468;SDS011;44257;44.804;10.220;2022-07-30T04:06:08;12.30;;;7.13;;
58468;SDS011;44257;44.804;10.220;2022-07-30T04:08:34;7.47;;;6.32;;
58468;SDS011;44257;44.804;10.220;2022-07-30T04:11:01;12.48;;;5.65;;
58468;SDS011;44257;44.804;10.220;2022-07-30T04:13:44;11.48;;;7.00;;
58468;SDS011;44257;44.804;10.220;2022-07-30T04:18:43;7.22;;;6.18;;
58468;SDS011;44257;44.804;10.220;2022-07-30T04:21:14;9.18;;;6.05;;
58468;SDS011;44257;44.804;10.220;2022-07-30T04:23:42;6.85;;;5.47;;
58468;SDS011;44257;44.804;10.220;2022-07-30T04:26:09;10.75;;;6.65;;
58468;SDS011;44257;44.804;10.220;2022-07-30T04:28:36;8.88;;;6.47;;
58468;SDS011;44257;44.804;10.220;2022-07-30T04:31:03;8.85;;;5.50;;
58468;SDS011;44257;44.804;10.220;2022-07-30T04:33:29;11.07;;;5.93;;
58468;SDS011;44257;44.804;10.220;2022-07-30T04:36:10;8.75;;;5.03;;
58468;SDS011;44257;44.804;10.220;2022-07-30T04:38:37;9.63;;;6.68;;
58468;SDS011;44257;44.804;10.220;2022-07-30T04:41:03;7.47;;;4.72;;
58468;SDS011;44257;44.804;10.220;2022-07-30T04:43:45;8.98;;;5.00;;
58468;SDS011;44257;44.804;10.220;2022-07-30T04:46:12;10.40;;;5.63;;
58468;SDS011;44257;44.804;10.220;2022-07-30T04:48:38;6.60;;;4.68;;
58468;SDS011;44257;44.804;10.220;2022-07-30T04:51:04;5.40;;;4.40;;
58468;SDS011;44257;44.804;10.220;2022-07-30T04:53:36;10.60;;;6.40;;
58468;SDS011;44257;44.804;10.220;2022-07-30T04:56:05;9.07;;;6.28;;
58468;SDS011;44257;44.804;10.220;2022-07-30T04:58:32;7.13;;;4.82;;
58468;SDS011;44257;44.804;10.220;2022-07-30T05:00:59;6.03;;;5.32;;
58468;SDS011;44257;44.804;10.220;2022-07-30T05:03:29;5.60;;;3.83;;
58468;SDS011;44257;44.804;10.220;2022-07-30T05:05:56;8.90;;;4.38;;
58468;SDS011;44257;44.804;10.220;2022-07-30T05:08:24;9.35;;;5.95;;
58468;SDS011;44257;44.804;10.220;2022-07-30T05:10:50;7.05;;;5.40;;
58468;SDS011;44257;44.804;10.220;2022-07-30T05:13:16;10.30;;;5.43;;
58468;SDS011;44257;44.804;10.220;2022-07-30T05:15:42;8.20;;;4.63;;
58468;SDS011;44257;44.804;10.220;2022-07-30T05:18:10;8.65;;;4.97;;
58468;SDS011;44257;44.804;10.220;2022-07-30T05:20:40;6.32;;;4.50;;
58468;SDS011;44257;44.804;10.220;2022-07-30T05:23:28;10.63;;;4.53;;
58468;SDS011;44257;44.804;10.220;2022-07-30T05:26:10;5.35;;;3.08;;
58468;SDS011;44257;44.804;10.220;2022-07-30T05:28:43;5.75;;;4.00;;
58468;SDS011;44257;44.804;10.220;2022-07-30T05:31:11;8.55;;;3.70;;
58468;SDS011;44257;44.804;10.220;2022-07-30T05:33:38;5.15;;;3.58;;
58468;SDS011;44257;44.804;10.220;2022-07-30T05:36:04;6.53;;;3.40;;
58468;SDS011;44257;44.804;10.220;2022-07-30T05:38:31;8.25;;;3.08;;
58468;SDS011;44257;44.804;10.220;2022-07-30T05:41:21;6.82;;;3.30;;
58468;SDS011;44257;44.804;10.220;2022-07-30T05:44:01;3.70;;;2.03;;
58468;SDS011;44257;44.804;10.220;2022-07-30T05:46:28;3.65;;;2.10;;
58468;SDS011;44257;44.804;10.220;2022-07-30T05:48:55;3.97;;;2.67;;
58468;SDS011;44257;44.804;10.220;2022-07-30T05:51:22;5.13;;;2.53;;
58468;SDS011;44257;44.804;10.220;2022-07-30T05:53:48;3.45;;;2.08;;
58468;SDS011;44257;44.804;10.220;2022-07-30T05:56:36;6.95;;;2.70;;
58468;SDS011;44257;44.804;10.220;2022-07-30T05:59:11;4.60;;;2.65;;
58468;SDS011;44257;44.804;10.220;2022-07-30T06:02:00;3.42;;;2.03;;
58468;SDS011;44257;44.804;10.220;2022-07-30T06:04:39;3.47;;;2.92;;
58468;SDS011;44257;44.804;10.220;2022-07-30T06:07:05;4.43;;;1.83;;
58468;SDS011;44257;44.804;10.220;2022-07-30T06:09:32;3.58;;;2.28;;
58468;SDS011;44257;44.804;10.220;2022-07-30T06:11:58;4.07;;;1.55;;
58468;SDS011;44257;44.804;10.220;2022-07-30T06:14:24;4.55;;;2.13;;
58468;SDS011;44257;44.804;10.220;2022-07-30T06:16:50;2.78;;;2.10;;
58468;SDS011;44257;44.804;10.220;2022-07-30T06:19:18;8.32;;;2.70;;
58468;SDS011;44257;44.804;10.220;2022-07-30T06:21:44;4.63;;;2.78;;
58468;SDS011;44257;44.804;10.220;2022-07-30T06:24:11;3.35;;;1.90;;
58468;SDS011;44257;44.804;10.220;2022-07-30T06:27:09;3.20;;;1.98;;
58468;SDS011;44257;44.804;10.220;2022-07-30T06:29:37;4.10;;;2.97;;
58468;SDS011;44257;44.804;10.220;2022-07-30T06:32:03;4.07;;;2.15;;
58468;SDS011;44257;44.804;10.220;2022-07-30T06:34:30;2.65;;;1.50;;
58468;SDS011;44257;44.804;10.220;2022-07-30T06:36:55;2.80;;;1.65;;
58468;SDS011;44257;44.804;10.220;2022-07-30T06:39:23;2.92;;;1.95;;
58468;SDS011;44257;44.804;10.220;2022-07-30T06:41:51;3.15;;;1.98;;
58468;SDS011;44257;44.804;10.220;2022-07-30T06:44:17;2.10;;;1.40;;
58468;SDS011;44257;44.804;10.220;2022-07-30T06:47:02;2.63;;;1.77;;
58468;SDS011;44257;44.804;10.220;2022-07-30T06:49:31;3.88;;;2.30;;
58468;SDS011;44257;44.804;10.220;2022-07-30T06:51:58;3.67;;;2.70;;
58468;SDS011;44257;44.804;10.220;2022-07-30T06:54:24;4.20;;;2.33;;
58468;SDS011;44257;44.804;10.220;2022-07-30T06:56:58;3.15;;;1.90;;
58468;SDS011;44257;44.804;10.220;2022-07-30T06:59:24;2.83;;;2.40;;
58468;SDS011;44257;44.804;10.220;2022-07-30T07:02:11;4.95;;;2.38;;
58468;SDS011;44257;44.804;10.220;2022-07-30T07:04:55;4.90;;;2.55;;
58468;SDS011;44257;44.804;10.220;2022-07-30T07:07:21;2.95;;;1.98;;
58468;SDS011;44257;44.804;10.220;2022-07-30T07:09:47;4.22;;;2.78;;
58468;SDS011;44257;44.804;10.220;2022-07-30T07:12:42;5.43;;;3.67;;
58468;SDS011;44257;44.804;10.220;2022-07-30T07:15:10;4.93;;;2.67;;
58468;SDS011;44257;44.804;10.220;2022-07-30T07:17:36;7.00;;;2.60;;
58468;SDS011;44257;44.804;10.220;2022-07-30T07:20:18;4.47;;;2.45;;
58468;SDS011;44257;44.804;10.220;2022-07-30T07:22:52;4.82;;;2.97;;
58468;SDS011;44257;44.804;10.220;2022-07-30T07:25:18;3.80;;;2.20;;
58468;SDS011;44257;44.804;10.220;2022-07-30T07:27:44;3.72;;;2.25;;
58468;SDS011;44257;44.804;10.220;2022-07-30T07:30:10;4.88;;;3.00;;
58468;SDS011;44257;44.804;10.220;2022-07-30T07:32:36;5.93;;;3.42;;
58468;SDS011;44257;44.804;10.220;2022-07-30T07:35:03;4.53;;;2.63;;
58468;SDS011;44257;44.804;10.220;2022-07-30T07:37:32;4.95;;;3.03;;
58468;SDS011;44257;44.804;10.220;2022-07-30T07:39:58;3.92;;;2.55;;
58468;SDS011;44257;44.804;10.220;2022-07-30T07:42:25;3.47;;;2.53;;
58468;SDS011;44257;44.804;10.220;2022-07-30T07:44:51;3.45;;;1.88;;
58468;SDS011;44257;44.804;10.220;2022-07-30T07:47:17;9.50;;;2.28;;
58468;SDS011;44257;44.804;10.220;2022-07-30T07:49:57;2.97;;;1.75;;
58468;SDS011;44257;44.804;10.220;2022-07-30T07:52:23;3.47;;;2.30;;
58468;SDS011;44257;44.804;10.220;2022-07-30T07:54:49;5.70;;;2.13;;
58468;SDS011;44257;44.804;10.220;2022-07-30T07:57:16;2.83;;;1.95;;
58468;SDS011;44257;44.804;10.220;2022-07-30T07:59:42;4.07;;;2.40;;
58468;SDS011;44257;44.804;10.220;2022-07-30T08:02:13;3.50;;;2.17;;
58468;SDS011;44257;44.804;10.220;2022-07-30T08:04:59;4.70;;;2.08;;
58468;SDS011;44257;44.804;10.220;2022-07-30T08:07:49;4.97;;;3.72;;
58468;SDS011;44257;44.804;10.220;2022-07-30T08:10:37;2.72;;;1.98;;
58468;SDS011;44257;44.804;10.220;2022-07-30T08:13:12;4.18;;;2.67;;
58468;SDS011;44257;44.804;10.220;2022-07-30T08:16:17;2.97;;;1.55;;
58468;SDS011;44257;44.804;10.220;2022-07-30T08:19:02;9.10;;;2.83;;
58468;SDS011;44257;44.804;10.220;2022-07-30T08:21:35;2.03;;;1.40;;
58468;SDS011;44257;44.804;10.220;2022-07-30T08:24:01;3.83;;;2.17;;
58468;SDS011;44257;44.804;10.220;2022-07-30T08:26:27;4.35;;;1.63;;
58468;SDS011;44257;44.804;10.220;2022-07-30T08:28:53;5.53;;;3.03;;
58468;SDS011;44257;44.804;10.220;2022-07-30T08:31:20;2.83;;;1.75;;
58468;SDS011;44257;44.804;10.220;2022-07-30T08:33:46;3.63;;;1.73;;
58468;SDS011;44257;44.804;10.220;2022-07-30T08:36:12;6.38;;;2.30;;
58468;SDS011;44257;44.804;10.220;2022-07-30T08:38:38;3.47;;;2.40;;
58468;SDS011;44257;44.804;10.220;2022-07-30T08:41:05;3.42;;;2.85;;
58468;SDS011;44257;44.804;10.220;2022-07-30T08:43:33;3.53;;;1.85;;
58468;SDS011;44257;44.804;10.220;2022-07-30T08:46:00;2.92;;;1.80;;
58468;SDS011;44257;44.804;10.220;2022-07-30T08:48:54;3.17;;;1.83;;
58468;SDS011;44257;44.804;10.220;2022-07-30T08:51:20;3.90;;;2.22;;
58468;SDS011;44257;44.804;10.220;2022-07-30T08:53:47;6.18;;;2.47;;
58468;SDS011;44257;44.804;10.220;2022-07-30T08:56:14;2.20;;;1.65;;
58468;SDS011;44257;44.804;10.220;2022-07-30T08:58:43;2.35;;;1.48;;
58468;SDS011;44257;44.804;10.220;2022-07-30T09:01:10;4.32;;;2.63;;
58468;SDS011;44257;44.804;10.220;2022-07-30T09:03:38;4.07;;;3.00;;
58468;SDS011;44257;44.804;10.220;2022-07-30T09:06:04;3.33;;;2.30;;
58468;SDS011;44257;44.804;10.220;2022-07-30T09:08:30;4.43;;;3.47;;
58468;SDS011;44257;44.804;10.220;2022-07-30T09:10:57;2.83;;;1.63;;
58468;SDS011;44257;44.804;10.220;2022-07-30T09:13:26;2.50;;;1.92;;
58468;SDS011;44257;44.804;10.220;2022-07-30T09:15:55;2.60;;;1.75;;
58468;SDS011;44257;44.804;10.220;2022-07-30T09:20:57;3.05;;;1.88;;
58468;SDS011;44257;44.804;10.220;2022-07-30T09:23:26;3.85;;;1.73;;
58468;SDS011;44257;44.804;10.220;2022-07-30T09:26:10;1.65;;;0.98;;
58468;SDS011;44257;44.804;10.220;2022-07-30T09:28:39;1.75;;;1.10;;
58468;SDS011;44257;44.804;10.220;2022-07-30T09:31:24;2.25;;;1.40;;
58468;SDS011;44257;44.804;10.220;2022-07-30T09:34:41;2.72;;;1.98;;
58468;SDS011;44257;44.804;10.220;2022-07-30T09:37:22;3.35;;;2.35;;
58468;SDS011;44257;44.804;10.220;2022-07-30T09:40:09;3.17;;;1.92;;
58468;SDS011;44257;44.804;10.220;2022-07-30T09:43:08;3.25;;;1.50;;
58468;SDS011;44257;44.804;10.220;2022-07-30T09:45:36;1.65;;;0.93;;
58468;SDS011;44257;44.804;10.220;2022-07-30T09:48:19;3.22;;;1.35;;
58468;SDS011;44257;44.804;10.220;2022-07-30T09:50:47;2.63;;;1.92;;
58468;SDS011;44257;44.804;10.220;2022-07-30T09:53:14;4.10;;;2.10;;
58468;SDS011;44257;44.804;10.220;2022-07-30T09:55:41;3.78;;;1.98;;
58468;SDS011;44257;44.804;10.220;2022-07-30T09:58:08;1.73;;;1.13;;
58468;SDS011;44257;44.804;10.220;2022-07-30T10:00:36;2.72;;;1.67;;
58468;SDS011;44257;44.804;10.220;2022-07-30T10:03:16;3.88;;;2.00;;
58468;SDS011;44257;44.804;10.220;2022-07-30T10:06:02;6.13;;;2.83;;
58468;SDS011;44257;44.804;10.220;2022-07-30T10:08:43;4.35;;;2.53;;
58468;SDS011;44257;44.804;10.220;2022-07-30T10:11:20;4.47;;;2.38;;
58468;SDS011;44257;44.804;10.220;2022-07-30T10:13:54;5.03;;;2.47;;
58468;SDS011;44257;44.804;10.220;2022-07-30T10:16:28;3.75;;;2.55;;
58468;SDS011;44257;44.804;10.220;2022-07-30T10:18:56;5.25;;;2.60;;
58468;SDS011;44257;44.804;10.220;2022-07-30T10:21:43;4.30;;;2.17;;
58468;SDS011;44257;44.804;10.220;2022-07-30T10:24:12;4.93;;;2.90;;
58468;SDS011;44257;44.804;10.220;2022-07-30T10:26:48;3.13;;;1.77;;
58468;SDS011;44257;44.804;10.220;2022-07-30T10:29:47;3.65;;;1.67;;
58468;SDS011;44257;44.804;10.220;2022-07-30T10:32:13;3.53;;;2.15;;
58468;SDS011;44257;44.804;10.220;2022-07-30T10:34:40;2.58;;;2.03;;
58468;SDS011;44257;44.804;10.220;2022-07-30T10:37:07;2.63;;;1.65;;
58468;SDS011;44257;44.804;10.220;2022-07-30T10:39:37;2.60;;;1.40;;
58468;SDS011;44257;44.804;10.220;2022-07-30T10:42:17;4.25;;;1.88;;
58468;SDS011;44257;44.804;10.220;2022-07-30T10:47:50;2.15;;;1.20;;
58468;SDS011;44257;44.804;10.220;2022-07-30T10:50:19;3.03;;;1.55;;
58468;SDS011;44257;44.804;10.220;2022-07-30T10:52:53;2.63;;;1.60;;
58468;SDS011;44257;44.804;10.220;2022-07-30T10:55:26;2.63;;;1.70;;
58468;SDS011;44257;44.804;10.220;2022-07-30T10:57:58;1.90;;;1.02;;
58468;SDS011;44257;44.804;10.220;2022-07-30T11:00:27;1.95;;;1.33;;
58468;SDS011;44257;44.804;10.220;2022-07-30T11:03:09;3.35;;;1.75;;
58468;SDS011;44257;44.804;10.220;2022-07-30T11:05:41;1.90;;;1.38;;
58468;SDS011;44257;44.804;10.220;2022-07-30T11:10:58;7.63;;;1.65;;
58468;SDS011;44257;44.804;10.220;2022-07-30T11:14:09;2.55;;;1.63;;
58468;SDS011;44257;44.804;10.220;2022-07-30T11:16:15;4.55;;;2.60;;
58468;SDS011;44257;44.804;10.220;2022-07-30T11:19:01;3.28;;;2.75;;
58468;SDS011;44257;44.804;10.220;2022-07-30T11:21:32;4.70;;;2.60;;
58468;SDS011;44257;44.804;10.220;2022-07-30T11:23:59;4.63;;;3.17;;
58468;SDS011;44257;44.804;10.220;2022-07-30T11:29:31;2.40;;;1.60;;
58468;SDS011;44257;44.804;10.220;2022-07-30T11:31:57;1.92;;;1.20;;
58468;SDS011;44257;44.804;10.220;2022-07-30T11:40:28;4.22;;;2.10;;
58468;SDS011;44257;44.804;10.220;2022-07-30T11:48:40;3.88;;;1.85;;
58468;SDS011;44257;44.804;10.220;2022-07-30T11:51:07;2.42;;;1.48;;
58468;SDS011;44257;44.804;10.220;2022-07-30T11:53:34;3.05;;;1.85;;
58468;SDS011;44257;44.804;10.220;2022-07-30T11:56:01;2.42;;;1.13;;
58468;SDS011;44257;44.804;10.220;2022-07-30T11:58:28;2.35;;;1.75;;
58468;SDS011;44257;44.804;10.220;2022-07-30T12:01:03;1.45;;;1.00;;
58468;SDS011;44257;44.804;10.220;2022-07-30T12:03:30;2.53;;;1.73;;
58468;SDS011;44257;44.804;10.220;2022-07-30T12:06:02;1.90;;;0.98;;
58468;SDS011;44257;44.804;10.220;2022-07-30T12:08:37;3.33;;;1.45;;
58468;SDS011;44257;44.804;10.220;2022-07-30T12:11:06;2.83;;;1.30;;
58468;SDS011;44257;44.804;10.220;2022-07-30T12:13:32;2.70;;;1.73;;
58468;SDS011;44257;44.804;10.220;2022-07-30T12:15:58;1.77;;;1.15;;
58468;SDS011;44257;44.804;10.220;2022-07-30T12:18:28;1.33;;;1.08;;
58468;SDS011;44257;44.804;10.220;2022-07-30T12:21:04;2.78;;;1.50;;
58468;SDS011;44257;44.804;10.220;2022-07-30T12:23:34;2.53;;;1.80;;
58468;SDS011;44257;44.804;10.220;2022-07-30T12:26:00;2.95;;;1.17;;
58468;SDS011;44257;44.804;10.220;2022-07-30T12:28:31;2.28;;;0.90;;
58468;SDS011;44257;44.804;10.220;2022-07-30T12:31:00;1.30;;;0.90;;
58468;SDS011;44257;44.804;10.220;2022-07-30T12:33:28;1.73;;;1.20;;
58468;SDS011;44257;44.804;10.220;2022-07-30T12:35:55;2.28;;;1.38;;
58468;SDS011;44257;44.804;10.220;2022-07-30T12:38:24;2.03;;;0.85;;
58468;SDS011;44257;44.804;10.220;2022-07-30T12:40:58;1.67;;;1.08;;
58468;SDS011;44257;44.804;10.220;2022-07-30T12:43:42;1.02;;;0.70;;
58468;SDS011;44257;44.804;10.220;2022-07-30T12:48:54;1.05;;;0.75;;
58468;SDS011;44257;44.804;10.220;2022-07-30T12:51:21;3.05;;;1.23;;
58468;SDS011;44257;44.804;10.220;2022-07-30T12:53:49;1.33;;;0.70;;
58468;SDS011;44257;44.804;10.220;2022-07-30T12:56:17;2.10;;;0.95;;
58468;SDS011;44257;44.804;10.220;2022-07-30T12:58:58;1.80;;;0.60;;
58468;SDS011;44257;44.804;10.220;2022-07-30T13:04:10;3.42;;;1.80;;
58468;SDS011;44257;44.804;10.220;2022-07-30T13:06:37;1.38;;;0.73;;
58468;SDS011;44257;44.804;10.220;2022-07-30T13:09:04;0.65;;;0.63;;
58468;SDS011;44257;44.804;10.220;2022-07-30T13:11:41;1.80;;;0.60;;
58468;SDS011;44257;44.804;10.220;2022-07-30T13:14:08;1.10;;;0.63;;
58468;SDS011;44257;44.804;10.220;2022-07-30T13:16:38;3.75;;;1.00;;
58468;SDS011;44257;44.804;10.220;2022-07-30T13:19:10;2.40;;;0.95;;
58468;SDS011;44257;44.804;10.220;2022-07-30T13:21:37;1.98;;;0.80;;
58468;SDS011;44257;44.804;10.220;2022-07-30T13:24:06;0.77;;;0.40;;
58468;SDS011;44257;44.804;10.220;2022-07-30T13:26:34;1.85;;;0.70;;
58468;SDS011;44257;44.804;10.220;2022-07-30T13:29:00;1.85;;;0.60;;
58468;SDS011;44257;44.804;10.220;2022-07-30T13:31:27;0.55;;;0.50;;
58468;SDS011;44257;44.804;10.220;2022-07-30T13:33:54;5.03;;;0.60;;
58468;SDS011;44257;44.804;10.220;2022-07-30T13:36:20;1.88;;;0.80;;
58468;SDS011;44257;44.804;10.220;2022-07-30T13:38:48;0.57;;;0.40;;
58468;SDS011;44257;44.804;10.220;2022-07-30T13:41:14;0.65;;;0.32;;
58468;SDS011;44257;44.804;10.220;2022-07-30T13:43:44;1.05;;;0.70;;
58468;SDS011;44257;44.804;10.220;2022-07-30T13:46:11;1.67;;;0.70;;
58468;SDS011;44257;44.804;10.220;2022-07-30T13:48:37;1.80;;;0.70;;
58468;SDS011;44257;44.804;10.220;2022-07-30T13:51:03;1.38;;;0.85;;
58468;SDS011;44257;44.804;10.220;2022-07-30T13:53:30;1.35;;;1.02;;
58468;SDS011;44257;44.804;10.220;2022-07-30T13:55:56;0.98;;;0.60;;
58468;SDS011;44257;44.804;10.220;2022-07-30T13:58:24;1.25;;;0.73;;
58468;SDS011;44257;44.804;10.220;2022-07-30T14:00:50;0.90;;;0.60;;
58468;SDS011;44257;44.804;10.220;2022-07-30T14:03:19;0.95;;;0.70;;
58468;SDS011;44257;44.804;10.220;2022-07-30T14:05:54;1.05;;;0.70;;
58468;SDS011;44257;44.804;10.220;2022-07-30T14:08:22;2.42;;;0.60;;
58468;SDS011;44257;44.804;10.220;2022-07-30T14:10:49;1.73;;;0.95;;
58468;SDS011;44257;44.804;10.220;2022-07-30T14:13:15;1.10;;;0.85;;
58468;SDS011;44257;44.804;10.220;2022-07-30T14:15:41;1.95;;;0.90;;
58468;SDS011;44257;44.804;10.220;2022-07-30T14:18:06;1.63;;;1.02;;
58468;SDS011;44257;44.804;10.220;2022-07-30T14:20:32;0.80;;;0.77;;
58468;SDS011;44257;44.804;10.220;2022-07-30T14:22:59;1.73;;;0.63;;
58468;SDS011;44257;44.804;10.220;2022-07-30T14:25:25;1.15;;;0.60;;
58468;SDS011;44257;44.804;10.220;2022-07-30T14:27:50;1.13;;;0.77;;
58468;SDS011;44257;44.804;10.220;2022-07-30T14:30:16;0.65;;;0.50;;
58468;SDS011;44257;44.804;10.220;2022-07-30T14:32:43;0.77;;;0.60;;
58468;SDS011;44257;44.804;10.220;2022-07-30T14:35:09;1.85;;;0.90;;
58468;SDS011;44257;44.804;10.220;2022-07-30T14:37:35;1.67;;;0.85;;
58468;SDS011;44257;44.804;10.220;2022-07-30T14:40:04;1.00;;;0.70;;
58468;SDS011;44257;44.804;10.220;2022-07-30T14:42:31;3.22;;;0.85;;
58468;SDS011;44257;44.804;10.220;2022-07-30T14:44:57;0.75;;;0.60;;
58468;SDS011;44257;44.804;10.220;2022-07-30T14:47:23;1.65;;;0.90;;
58468;SDS011;44257;44.804;10.220;2022-07-30T14:49:50;1.08;;;0.70;;
58468;SDS011;44257;44.804;10.220;2022-07-30T14:52:16;1.45;;;0.80;;
58468;SDS011;44257;44.804;10.220;2022-07-30T14:54:42;0.88;;;0.60;;
58468;SDS011;44257;44.804;10.220;2022-07-30T14:57:08;1.92;;;0.50;;
58468;SDS011;44257;44.804;10.220;2022-07-30T14:59:34;0.68;;;0.50;;
58468;SDS011;44257;44.804;10.220;2022-07-30T15:02:00;1.13;;;0.63;;
58468;SDS011;44257;44.804;10.220;2022-07-30T15:04:26;1.23;;;0.88;;
58468;SDS011;44257;44.804;10.220;2022-07-30T15:06:52;1.58;;;0.88;;
58468;SDS011;44257;44.804;10.220;2022-07-30T15:09:18;1.10;;;0.70;;
58468;SDS011;44257;44.804;10.220;2022-07-30T15:11:44;1.00;;;0.60;;
58468;SDS011;44257;44.804;10.220;2022-07-30T15:14:10;1.08;;;0.65;;
58468;SDS011;44257;44.804;10.220;2022-07-30T15:16:38;1.15;;;0.80;;
58468;SDS011;44257;44.804;10.220;2022-07-30T15:19:04;0.90;;;0.55;;
58468;SDS011;44257;44.804;10.220;2022-07-30T15:21:30;1.13;;;0.65;;
58468;SDS011;44257;44.804;10.220;2022-07-30T15:23:56;2.70;;;1.17;;
58468;SDS011;44257;44.804;10.220;2022-07-30T15:26:22;0.52;;;0.30;;
58468;SDS011;44257;44.804;10.220;2022-07-30T15:28:47;0.57;;;0.40;;